sensor_id;sensor_type;location;lat;lon;timestamp;pressure;altitude;pressure_sealevel;temperature;humidity
12676;BME280;63820;65.654;21.944;2023-03-13T00:00:31;99146.06;;;-16.76;100.00
12676;BME280;63820;65.654;21.944;2023-03-13T00:03:15;99139.91;;;-16.84;100.00
12676;BME280;63820;65.654;21.944;2023-03-13T00:06:00;99144.81;;;-16.85;100.00
12676;BME280;63820;65.654;21.944;2023-03-13T00:08:44;99146.38;;;-16.88;100.00
12676;BME280;63820;65.654;21.944;2023-03-13T00:11:29;99146.97;;;-16.93;100.00
12676;BME280;63820;65.654;21.944;2023-03-13T00:14:13;99146.56;;;-17.02;100.00
12676;BME280;63820;65.654;21.944;2023-03-13T00:16:58;99156.63;;;-16.99;100.00
12676;BME280;63820;65.654;21.944;2023-03-13T00:19:42;99153.50;;;-16.95;100.00
12676;BME280;63820;65.654;21.944;2023-03-13T00:22:25;99150.38;;;-16.91;100.00
12676;BME280;63820;65.654;21.944;2023-03-13T00:25:09;99139.00;;;-16.86;100.00
12676;BME280;63820;65.654;21.944;2023-03-13T00:27:53;99140.81;;;-16.82;100.00
12676;BME280;63820;65.654;21.944;2023-03-13T00:30:37;99142.66;;;-16.78;100.00
12676;BME280;63820;65.654;21.944;2023-03-13T00:33:21;99137.81;;;-16.75;100.00
12676;BME280;63820;65.654;21.944;2023-03-13T00:36:08;99132.06;;;-16.74;100.00
12676;BME280;63820;65.654;21.944;2023-03-13T00:38:53;99130.94;;;-16.80;100.00
12676;BME280;63820;65.654;21.944;2023-03-13T00:41:38;99127.22;;;-16.90;100.00
12676;BME280;63820;65.654;21.944;2023-03-13T00:44:22;99128.53;;;-16.98;100.00
12676;BME280;63820;65.654;21.944;2023-03-13T00:47:07;99132.97;;;-17.10;100.00
12676;BME280;63820;65.654;21.944;2023-03-13T00:49:51;99136.22;;;-17.11;100.00
12676;BME280;63820;65.654;21.944;2023-03-13T00:52:35;99131.25;;;-17.11;100.00
12676;BME280;63820;65.654;21.944;2023-03-13T00:55:19;99130.53;;;-17.09;100.00
12676;BME280;63820;65.654;21.944;2023-03-13T00:58:03;99123.72;;;-17.13;100.00
12676;BME280;63820;65.654;21.944;2023-03-13T01:00:47;99122.47;;;-17.23;100.00
12676;BME280;63820;65.654;21.944;2023-03-13T01:03:31;99106.31;;;-17.32;100.00
12676;BME280;63820;65.654;21.944;2023-03-13T01:06:18;99106.06;;;-17.38;100.00
12676;BME280;63820;65.654;21.944;2023-03-13T01:09:05;99076.16;;;-17.59;100.00
12676;BME280;63820;65.654;21.944;2023-03-13T01:11:49;99100.59;;;-17.49;100.00
12676;BME280;63820;65.654;21.944;2023-03-13T01:14:33;99107.50;;;-17.61;100.00
12676;BME280;63820;65.654;21.944;2023-03-13T01:17:18;99102.28;;;-17.67;100.00
12676;BME280;63820;65.654;21.944;2023-03-13T01:20:02;99106.88;;;-17.76;100.00
12676;BME280;63820;65.654;21.944;2023-03-13T01:22:48;99105.59;;;-17.86;100.00
12676;BME280;63820;65.654;21.944;2023-03-13T01:25:35;99115.88;;;-17.96;100.00
12676;BME280;63820;65.654;21.944;2023-03-13T01:28:21;99129.28;;;-17.93;100.00
12676;BME280;63820;65.654;21.944;2023-03-13T01:31:14;99128.44;;;-17.93;100.00
12676;BME280;63820;65.654;21.944;2023-03-13T01:34:03;99123.91;;;-18.02;100.00
12676;BME280;63820;65.654;21.944;2023-03-13T01:36:48;99134.22;;;-18.10;100.00
12676;BME280;63820;65.654;21.944;2023-03-13T01:39:34;99129.84;;;-18.16;100.00
12676;BME280;63820;65.654;21.944;2023-03-13T01:42:18;99122.88;;;-18.23;100.00
12676;BME280;63820;65.654;21.944;2023-03-13T01:45:01;99112.53;;;-18.32;100.00
12676;BME280;63820;65.654;21.944;2023-03-13T01:47:46;99107.84;;;-18.26;100.00
12676;BME280;63820;65.654;21.944;2023-03-13T01:50:30;99112.97;;;-18.23;100.00
12676;BME280;63820;65.654;21.944;2023-03-13T01:53:14;99113.75;;;-18.24;100.00
12676;BME280;63820;65.654;21.944;2023-03-13T01:55:59;99110.34;;;-18.26;100.00
12676;BME280;63820;65.654;21.944;2023-03-13T01:58:49;99112.97;;;-18.23;100.00
12676;BME280;63820;65.654;21.944;2023-03-13T02:01:34;99116.03;;;-18.11;100.00
12676;BME280;63820;65.654;21.944;2023-03-13T02:04:20;99118.50;;;-18.11;100.00
12676;BME280;63820;65.654;21.944;2023-03-13T02:07:10;99110.97;;;-18.12;100.00
12676;BME280;63820;65.654;21.944;2023-03-13T02:09:57;99101.78;;;-18.15;100.00
12676;BME280;63820;65.654;21.944;2023-03-13T02:12:42;99098.22;;;-18.20;100.00
12676;BME280;63820;65.654;21.944;2023-03-13T02:15:27;99104.66;;;-18.24;100.00
12676;BME280;63820;65.654;21.944;2023-03-13T02:18:13;99094.53;;;-18.28;100.00
12676;BME280;63820;65.654;21.944;2023-03-13T02:21:07;99091.69;;;-18.36;100.00
12676;BME280;63820;65.654;21.944;2023-03-13T02:24:11;99099.06;;;-18.37;100.00
12676;BME280;63820;65.654;21.944;2023-03-13T02:26:57;99102.56;;;-18.50;100.00
12676;BME280;63820;65.654;21.944;2023-03-13T02:29:41;99094.09;;;-18.73;100.00
12676;BME280;63820;65.654;21.944;2023-03-13T02:32:28;99088.28;;;-18.90;100.00
12676;BME280;63820;65.654;21.944;2023-03-13T02:35:16;99107.88;;;-18.94;100.00
12676;BME280;63820;65.654;21.944;2023-03-13T02:38:03;99115.78;;;-19.01;100.00
12676;BME280;63820;65.654;21.944;2023-03-13T02:40:49;99112.69;;;-19.13;100.00
12676;BME280;63820;65.654;21.944;2023-03-13T02:43:37;99105.19;;;-19.15;100.00
12676;BME280;63820;65.654;21.944;2023-03-13T02:46:21;99100.31;;;-19.13;100.00
12676;BME280;63820;65.654;21.944;2023-03-13T02:49:24;99104.31;;;-19.15;100.00
12676;BME280;63820;65.654;21.944;2023-03-13T02:52:14;99101.31;;;-19.10;100.00
12676;BME280;63820;65.654;21.944;2023-03-13T02:55:05;99097.06;;;-18.96;100.00
12676;BME280;63820;65.654;21.944;2023-03-13T02:57:51;99092.22;;;-18.77;100.00
12676;BME280;63820;65.654;21.944;2023-03-13T03:00:36;99096.81;;;-18.67;100.00
12676;BME280;63820;65.654;21.944;2023-03-13T03:03:20;99086.28;;;-18.63;100.00
12676;BME280;63820;65.654;21.944;2023-03-13T03:06:05;99095.53;;;-18.59;100.00
12676;BME280;63820;65.654;21.944;2023-03-13T03:08:49;99094.00;;;-18.74;100.00
12676;BME280;63820;65.654;21.944;2023-03-13T03:11:34;99107.72;;;-18.81;100.00
12676;BME280;63820;65.654;21.944;2023-03-13T03:14:18;99099.91;;;-18.89;100.00
12676;BME280;63820;65.654;21.944;2023-03-13T03:17:02;99106.66;;;-19.02;100.00
12676;BME280;63820;65.654;21.944;2023-03-13T03:19:46;99122.50;;;-19.15;100.00
12676;BME280;63820;65.654;21.944;2023-03-13T03:22:30;99119.63;;;-19.23;100.00
12676;BME280;63820;65.654;21.944;2023-03-13T03:25:14;99117.63;;;-19.30;100.00
12676;BME280;63820;65.654;21.944;2023-03-13T03:27:58;99125.66;;;-19.34;100.00
12676;BME280;63820;65.654;21.944;2023-03-13T03:30:42;99132.16;;;-19.36;100.00
12676;BME280;63820;65.654;21.944;2023-03-13T03:33:26;99128.59;;;-19.41;100.00
12676;BME280;63820;65.654;21.944;2023-03-13T03:36:16;99141.59;;;-19.45;100.00
12676;BME280;63820;65.654;21.944;2023-03-13T03:39:01;99135.53;;;-19.50;100.00
12676;BME280;63820;65.654;21.944;2023-03-13T03:41:45;99137.16;;;-19.50;100.00
12676;BME280;63820;65.654;21.944;2023-03-13T03:44:29;99132.28;;;-19.49;100.00
12676;BME280;63820;65.654;21.944;2023-03-13T03:47:13;99127.50;;;-19.46;100.00
12676;BME280;63820;65.654;21.944;2023-03-13T03:49:57;99132.00;;;-19.39;100.00
12676;BME280;63820;65.654;21.944;2023-03-13T03:52:41;99126.59;;;-19.32;100.00
12676;BME280;63820;65.654;21.944;2023-03-13T03:55:25;99118.19;;;-19.19;100.00
12676;BME280;63820;65.654;21.944;2023-03-13T03:58:09;99102.94;;;-19.10;100.00
12676;BME280;63820;65.654;21.944;2023-03-13T04:00:56;99109.28;;;-18.99;100.00
12676;BME280;63820;65.654;21.944;2023-03-13T04:03:41;99109.28;;;-18.99;100.00
12676;BME280;63820;65.654;21.944;2023-03-13T04:06:27;99110.53;;;-19.07;100.00
12676;BME280;63820;65.654;21.944;2023-03-13T04:09:11;99119.97;;;-19.16;100.00
12676;BME280;63820;65.654;21.944;2023-03-13T04:11:55;99124.44;;;-19.26;100.00
12676;BME280;63820;65.654;21.944;2023-03-13T04:14:39;99125.34;;;-19.40;100.00
12676;BME280;63820;65.654;21.944;2023-03-13T04:17:24;99131.22;;;-19.54;100.00
12676;BME280;63820;65.654;21.944;2023-03-13T04:20:09;99130.59;;;-19.66;100.00
12676;BME280;63820;65.654;21.944;2023-03-13T04:22:56;99138.22;;;-19.78;100.00
12676;BME280;63820;65.654;21.944;2023-03-13T04:25:40;99130.84;;;-19.93;100.00
12676;BME280;63820;65.654;21.944;2023-03-13T04:28:24;99131.28;;;-20.00;100.00
12676;BME280;63820;65.654;21.944;2023-03-13T04:31:08;99125.41;;;-20.02;100.00
12676;BME280;63820;65.654;21.944;2023-03-13T04:33:52;99132.47;;;-20.08;100.00
12676;BME280;63820;65.654;21.944;2023-03-13T04:36:36;99134.78;;;-20.11;100.00
12676;BME280;63820;65.654;21.944;2023-03-13T04:39:20;99130.00;;;-20.08;100.00
12676;BME280;63820;65.654;21.944;2023-03-13T04:42:09;99127.97;;;-20.15;100.00
12676;BME280;63820;65.654;21.944;2023-03-13T04:44:54;99124.22;;;-20.08;100.00
12676;BME280;63820;65.654;21.944;2023-03-13T04:47:38;99112.44;;;-19.98;100.00
12676;BME280;63820;65.654;21.944;2023-03-13T04:50:22;99108.75;;;-19.90;100.00
12676;BME280;63820;65.654;21.944;2023-03-13T04:53:06;99100.28;;;-19.78;100.00
12676;BME280;63820;65.654;21.944;2023-03-13T04:55:50;99095.88;;;-19.68;100.00
12676;BME280;63820;65.654;21.944;2023-03-13T04:58:34;99097.81;;;-19.62;100.00
12676;BME280;63820;65.654;21.944;2023-03-13T05:01:18;99092.84;;;-19.62;100.00
12676;BME280;63820;65.654;21.944;2023-03-13T05:04:03;99103.69;;;-19.60;100.00
12676;BME280;63820;65.654;21.944;2023-03-13T05:06:48;99105.84;;;-19.66;100.00
12676;BME280;63820;65.654;21.944;2023-03-13T05:09:32;99103.97;;;-19.70;100.00
12676;BME280;63820;65.654;21.944;2023-03-13T05:12:16;99105.31;;;-19.77;100.00
12676;BME280;63820;65.654;21.944;2023-03-13T05:15:00;99099.78;;;-19.88;100.00
12676;BME280;63820;65.654;21.944;2023-03-13T05:17:45;99095.72;;;-20.02;100.00
12676;BME280;63820;65.654;21.944;2023-03-13T05:20:29;99097.44;;;-20.01;100.00
12676;BME280;63820;65.654;21.944;2023-03-13T05:23:13;99094.34;;;-19.97;100.00
12676;BME280;63820;65.654;21.944;2023-03-13T05:25:58;99108.13;;;-19.85;100.00
12676;BME280;63820;65.654;21.944;2023-03-13T05:28:42;99087.91;;;-19.78;100.00
12676;BME280;63820;65.654;21.944;2023-03-13T05:31:26;99094.94;;;-19.70;100.00
12676;BME280;63820;65.654;21.944;2023-03-13T05:34:10;99086.13;;;-19.65;100.00
12676;BME280;63820;65.654;21.944;2023-03-13T05:36:54;99094.41;;;-19.64;100.00
12676;BME280;63820;65.654;21.944;2023-03-13T05:39:37;99088.06;;;-19.59;100.00
12676;BME280;63820;65.654;21.944;2023-03-13T05:42:22;99098.28;;;-19.53;100.00
12676;BME280;63820;65.654;21.944;2023-03-13T05:45:07;99100.19;;;-19.47;100.00
12676;BME280;63820;65.654;21.944;2023-03-13T05:47:54;99105.38;;;-19.43;100.00
12676;BME280;63820;65.654;21.944;2023-03-13T05:50:38;99099.84;;;-19.55;100.00
12676;BME280;63820;65.654;21.944;2023-03-13T05:53:23;99102.16;;;-19.58;100.00
12676;BME280;63820;65.654;21.944;2023-03-13T05:56:07;99099.22;;;-19.51;100.00
12676;BME280;63820;65.654;21.944;2023-03-13T05:58:51;99111.88;;;-19.45;100.00
12676;BME280;63820;65.654;21.944;2023-03-13T06:01:35;99105.22;;;-19.46;100.00
12676;BME280;63820;65.654;21.944;2023-03-13T06:04:19;99107.47;;;-19.50;100.00
12676;BME280;63820;65.654;21.944;2023-03-13T06:07:04;99114.06;;;-19.51;100.00
12676;BME280;63820;65.654;21.944;2023-03-13T06:09:48;99105.78;;;-19.51;100.00
12676;BME280;63820;65.654;21.944;2023-03-13T06:12:32;99101.69;;;-19.35;100.00
12676;BME280;63820;65.654;21.944;2023-03-13T06:15:16;99112.75;;;-19.12;100.00
12676;BME280;63820;65.654;21.944;2023-03-13T06:18:01;99104.63;;;-18.93;100.00
12676;BME280;63820;65.654;21.944;2023-03-13T06:20:45;99100.59;;;-18.75;100.00
12676;BME280;63820;65.654;21.944;2023-03-13T06:23:29;99107.81;;;-18.62;100.00
12676;BME280;63820;65.654;21.944;2023-03-13T06:26:13;99103.56;;;-18.46;100.00
12676;BME280;63820;65.654;21.944;2023-03-13T06:28:58;99106.50;;;-18.37;100.00
12676;BME280;63820;65.654;21.944;2023-03-13T06:31:42;99104.19;;;-18.16;100.00
12676;BME280;63820;65.654;21.944;2023-03-13T06:34:26;99113.53;;;-17.75;100.00
12676;BME280;63820;65.654;21.944;2023-03-13T06:37:10;99113.13;;;-17.28;100.00
12676;BME280;63820;65.654;21.944;2023-03-13T06:39:55;99110.06;;;-16.84;100.00
12676;BME280;63820;65.654;21.944;2023-03-13T06:42:39;99113.34;;;-16.43;100.00
12676;BME280;63820;65.654;21.944;2023-03-13T06:45:23;99102.47;;;-15.62;100.00
12676;BME280;63820;65.654;21.944;2023-03-13T06:48:08;99100.00;;;-14.41;100.00
12676;BME280;63820;65.654;21.944;2023-03-13T06:50:52;99084.91;;;-12.74;100.00
12676;BME280;63820;65.654;21.944;2023-03-13T06:53:37;99097.69;;;-11.96;87.76
12676;BME280;63820;65.654;21.944;2023-03-13T06:56:22;99090.53;;;-12.16;89.04
12676;BME280;63820;65.654;21.944;2023-03-13T06:59:07;99098.00;;;-12.18;92.04
12676;BME280;63820;65.654;21.944;2023-03-13T07:01:51;99095.56;;;-11.40;91.77
12676;BME280;63820;65.654;21.944;2023-03-13T07:04:35;99085.78;;;-11.28;79.74
12676;BME280;63820;65.654;21.944;2023-03-13T07:07:18;99083.25;;;-11.68;68.91
12676;BME280;63820;65.654;21.944;2023-03-13T07:10:02;99083.72;;;-13.48;70.44
12676;BME280;63820;65.654;21.944;2023-03-13T07:12:47;99092.66;;;-14.10;72.50
12676;BME280;63820;65.654;21.944;2023-03-13T07:15:31;99086.53;;;-14.46;70.63
12676;BME280;63820;65.654;21.944;2023-03-13T07:18:15;99081.75;;;-14.66;74.00
12676;BME280;63820;65.654;21.944;2023-03-13T07:21:02;99076.09;;;-14.33;73.92
12676;BME280;63820;65.654;21.944;2023-03-13T07:23:48;99076.22;;;-14.30;74.38
12676;BME280;63820;65.654;21.944;2023-03-13T07:26:32;99083.91;;;-13.97;75.25
12676;BME280;63820;65.654;21.944;2023-03-13T07:29:16;99083.44;;;-13.85;75.70
12676;BME280;63820;65.654;21.944;2023-03-13T07:32:00;99077.31;;;-13.68;76.48
12676;BME280;63820;65.654;21.944;2023-03-13T07:34:44;99089.59;;;-12.54;77.95
12676;BME280;63820;65.654;21.944;2023-03-13T07:37:28;99086.78;;;-11.60;72.48
12676;BME280;63820;65.654;21.944;2023-03-13T07:40:12;99078.41;;;-11.20;66.89
12676;BME280;63820;65.654;21.944;2023-03-13T07:42:56;99085.38;;;-10.63;65.20
12676;BME280;63820;65.654;21.944;2023-03-13T07:45:55;99092.78;;;-9.68;61.32
12676;BME280;63820;65.654;21.944;2023-03-13T07:48:41;99100.75;;;-9.39;60.77
12676;BME280;63820;65.654;21.944;2023-03-13T07:51:26;99092.22;;;-8.81;59.08
12676;BME280;63820;65.654;21.944;2023-03-13T07:54:10;99088.56;;;-6.95;57.63
12676;BME280;63820;65.654;21.944;2023-03-13T07:56:55;99080.25;;;-5.54;52.53
12676;BME280;63820;65.654;21.944;2023-03-13T07:59:39;99079.44;;;-3.86;49.24
12676;BME280;63820;65.654;21.944;2023-03-13T08:02:23;99073.19;;;-3.49;47.48
12676;BME280;63820;65.654;21.944;2023-03-13T08:05:07;99061.31;;;-2.15;46.11
12676;BME280;63820;65.654;21.944;2023-03-13T08:07:52;99054.41;;;-0.70;44.43
12676;BME280;63820;65.654;21.944;2023-03-13T08:10:36;99063.84;;;1.33;41.48
12676;BME280;63820;65.654;21.944;2023-03-13T08:13:20;99059.75;;;1.25;40.92
12676;BME280;63820;65.654;21.944;2023-03-13T08:16:13;99058.13;;;1.52;40.20
12676;BME280;63820;65.654;21.944;2023-03-13T08:18:58;99052.41;;;0.84;41.49
12676;BME280;63820;65.654;21.944;2023-03-13T08:21:42;99056.91;;;1.36;41.26
12676;BME280;63820;65.654;21.944;2023-03-13T08:24:26;99057.25;;;1.24;40.65
12676;BME280;63820;65.654;21.944;2023-03-13T08:27:10;99050.34;;;2.10;39.55
12676;BME280;63820;65.654;21.944;2023-03-13T08:29:54;99047.13;;;2.05;37.49
12676;BME280;63820;65.654;21.944;2023-03-13T08:32:38;99037.56;;;0.96;36.90
12676;BME280;63820;65.654;21.944;2023-03-13T08:35:23;99041.38;;;-0.19;36.95
12676;BME280;63820;65.654;21.944;2023-03-13T08:38:07;99036.41;;;-0.25;38.87
12676;BME280;63820;65.654;21.944;2023-03-13T08:40:55;99030.97;;;0.23;40.38
12676;BME280;63820;65.654;21.944;2023-03-13T08:43:40;99030.72;;;0.33;42.20
12676;BME280;63820;65.654;21.944;2023-03-13T08:46:25;99030.31;;;0.49;42.85
12676;BME280;63820;65.654;21.944;2023-03-13T08:49:11;99022.72;;;1.65;42.58
12676;BME280;63820;65.654;21.944;2023-03-13T08:51:56;99022.97;;;0.69;38.70
12676;BME280;63820;65.654;21.944;2023-03-13T08:54:40;99007.44;;;2.15;35.41
12676;BME280;63820;65.654;21.944;2023-03-13T08:57:24;99012.88;;;3.27;34.44
12676;BME280;63820;65.654;21.944;2023-03-13T09:00:08;99006.75;;;2.84;34.56
12676;BME280;63820;65.654;21.944;2023-03-13T09:02:56;98998.28;;;2.33;37.06
12676;BME280;63820;65.654;21.944;2023-03-13T09:05:41;99008.38;;;1.59;38.61
12676;BME280;63820;65.654;21.944;2023-03-13T09:08:26;98992.16;;;0.41;43.37
12676;BME280;63820;65.654;21.944;2023-03-13T09:11:17;98984.38;;;0.12;45.62
12676;BME280;63820;65.654;21.944;2023-03-13T09:14:02;98978.09;;;-0.45;47.14
12676;BME280;63820;65.654;21.944;2023-03-13T09:16:46;98971.91;;;-1.53;49.52
12676;BME280;63820;65.654;21.944;2023-03-13T09:19:31;98973.97;;;-1.72;50.42
12676;BME280;63820;65.654;21.944;2023-03-13T09:22:15;98971.34;;;-1.69;50.99
12676;BME280;63820;65.654;21.944;2023-03-13T09:25:00;98973.38;;;-1.42;50.68
12676;BME280;63820;65.654;21.944;2023-03-13T09:27:44;98971.91;;;-1.10;50.79
12676;BME280;63820;65.654;21.944;2023-03-13T09:30:27;98967.13;;;-1.25;49.93
12676;BME280;63820;65.654;21.944;2023-03-13T09:33:11;98960.44;;;-1.76;51.55
12676;BME280;63820;65.654;21.944;2023-03-13T09:35:55;98955.81;;;-2.03;52.03
12676;BME280;63820;65.654;21.944;2023-03-13T09:38:40;98949.38;;;-2.22;52.82
12676;BME280;63820;65.654;21.944;2023-03-13T09:41:33;98948.03;;;-1.95;53.73
12676;BME280;63820;65.654;21.944;2023-03-13T09:44:24;98945.56;;;-1.99;53.45
12676;BME280;63820;65.654;21.944;2023-03-13T09:47:49;98939.19;;;-1.75;53.80
12676;BME280;63820;65.654;21.944;2023-03-13T09:50:40;98935.66;;;-1.69;53.55
12676;BME280;63820;65.654;21.944;2023-03-13T09:53:35;98939.94;;;-1.26;52.87
12676;BME280;63820;65.654;21.944;2023-03-13T09:56:26;98940.53;;;-0.40;51.68
12676;BME280;63820;65.654;21.944;2023-03-13T09:59:32;98943.41;;;0.15;50.91
12676;BME280;63820;65.654;21.944;2023-03-13T10:02:33;98932.78;;;-0.03;49.46
12676;BME280;63820;65.654;21.944;2023-03-13T10:05:22;98932.84;;;-0.75;48.63
12676;BME280;63820;65.654;21.944;2023-03-13T10:08:15;98924.41;;;-0.79;50.05
12676;BME280;63820;65.654;21.944;2023-03-13T10:11:23;98923.88;;;-0.93;51.96
12676;BME280;63820;65.654;21.944;2023-03-13T10:14:25;98912.34;;;-0.72;48.91
12676;BME280;63820;65.654;21.944;2023-03-13T10:17:25;98915.28;;;-0.18;49.37
12676;BME280;63820;65.654;21.944;2023-03-13T10:20:32;98901.13;;;0.02;48.64
12676;BME280;63820;65.654;21.944;2023-03-13T10:23:37;98899.97;;;0.44;47.69
12676;BME280;63820;65.654;21.944;2023-03-13T10:26:28;98910.97;;;0.17;48.84
12676;BME280;63820;65.654;21.944;2023-03-13T10:29:20;98902.94;;;-0.01;48.83
12676;BME280;63820;65.654;21.944;2023-03-13T10:32:09;98902.66;;;0.09;49.19
12676;BME280;63820;65.654;21.944;2023-03-13T10:35:00;98891.81;;;0.31;49.12
12676;BME280;63820;65.654;21.944;2023-03-13T10:37:45;98888.75;;;-0.46;49.04
12676;BME280;63820;65.654;21.944;2023-03-13T10:40:30;98876.81;;;-0.81;50.63
12676;BME280;63820;65.654;21.944;2023-03-13T10:43:18;98878.25;;;-0.70;51.21
12676;BME280;63820;65.654;21.944;2023-03-13T10:46:03;98878.63;;;-0.49;51.01
12676;BME280;63820;65.654;21.944;2023-03-13T10:48:47;98875.25;;;-0.17;50.35
12676;BME280;63820;65.654;21.944;2023-03-13T10:51:37;98874.50;;;-0.21;48.75
12676;BME280;63820;65.654;21.944;2023-03-13T10:54:30;98877.69;;;-0.47;49.81
12676;BME280;63820;65.654;21.944;2023-03-13T11:00:29;98877.94;;;-0.22;46.10
12676;BME280;63820;65.654;21.944;2023-03-13T11:03:22;98881.84;;;-0.09;46.34
12676;BME280;63820;65.654;21.944;2023-03-13T11:06:38;98870.44;;;-0.63;44.98
12676;BME280;63820;65.654;21.944;2023-03-13T11:09:23;98863.63;;;-0.63;47.37
12676;BME280;63820;65.654;21.944;2023-03-13T11:12:19;98866.91;;;-0.93;47.74
12676;BME280;63820;65.654;21.944;2023-03-13T11:15:13;98865.25;;;-1.33;48.61
12676;BME280;63820;65.654;21.944;2023-03-13T11:18:11;98857.03;;;-1.07;47.30
12676;BME280;63820;65.654;21.944;2023-03-13T11:21:00;98854.88;;;-1.25;44.61
12676;BME280;63820;65.654;21.944;2023-03-13T11:23:52;98849.59;;;-1.16;47.65
12676;BME280;63820;65.654;21.944;2023-03-13T11:26:48;98841.53;;;-1.37;45.06
12676;BME280;63820;65.654;21.944;2023-03-13T11:32:54;98844.75;;;-1.28;44.06
12676;BME280;63820;65.654;21.944;2023-03-13T11:35:45;98843.34;;;-1.83;43.46
12676;BME280;63820;65.654;21.944;2023-03-13T11:38:41;98846.84;;;-1.89;43.44
12676;BME280;63820;65.654;21.944;2023-03-13T11:50:59;98840.97;;;-2.36;44.90
12676;BME280;63820;65.654;21.944;2023-03-13T11:54:20;98831.00;;;-2.48;45.80
12676;BME280;63820;65.654;21.944;2023-03-13T11:57:27;98825.16;;;-2.53;46.15
12676;BME280;63820;65.654;21.944;2023-03-13T12:03:18;98824.50;;;-2.64;47.02
12676;BME280;63820;65.654;21.944;2023-03-13T12:06:05;98820.91;;;-2.52;48.37
12676;BME280;63820;65.654;21.944;2023-03-13T12:08:54;98807.59;;;-2.68;49.20
12676;BME280;63820;65.654;21.944;2023-03-13T12:11:58;98820.41;;;-2.74;50.90
12676;BME280;63820;65.654;21.944;2023-03-13T12:14:54;98804.19;;;-2.67;51.58
12676;BME280;63820;65.654;21.944;2023-03-13T12:17:47;98804.97;;;-2.64;51.86
12676;BME280;63820;65.654;21.944;2023-03-13T12:20:38;98821.97;;;-2.66;52.43
12676;BME280;63820;65.654;21.944;2023-03-13T12:23:39;98809.78;;;-2.47;53.25
12676;BME280;63820;65.654;21.944;2023-03-13T12:29:39;98805.88;;;-2.66;52.71
12676;BME280;63820;65.654;21.944;2023-03-13T12:32:37;98797.03;;;-2.47;53.27
12676;BME280;63820;65.654;21.944;2023-03-13T12:35:30;98789.38;;;-2.45;51.94
12676;BME280;63820;65.654;21.944;2023-03-13T12:38:28;98792.69;;;-2.40;52.28
12676;BME280;63820;65.654;21.944;2023-03-13T12:41:24;98803.75;;;-2.43;52.43
12676;BME280;63820;65.654;21.944;2023-03-13T12:44:14;98789.56;;;-2.56;53.79
12676;BME280;63820;65.654;21.944;2023-03-13T12:47:15;98804.53;;;-2.39;53.14
12676;BME280;63820;65.654;21.944;2023-03-13T12:50:22;98801.00;;;-2.31;53.89
12676;BME280;63820;65.654;21.944;2023-03-13T12:59:29;98765.31;;;-2.29;54.09
12676;BME280;63820;65.654;21.944;2023-03-13T13:02:27;98775.50;;;-2.29;55.11
12676;BME280;63820;65.654;21.944;2023-03-13T13:05:21;98766.53;;;-2.07;56.01
12676;BME280;63820;65.654;21.944;2023-03-13T13:08:23;98765.84;;;-2.13;56.53
12676;BME280;63820;65.654;21.944;2023-03-13T13:17:27;98745.44;;;-2.12;58.60
12676;BME280;63820;65.654;21.944;2023-03-13T13:20:30;98748.00;;;-2.12;58.67
12676;BME280;63820;65.654;21.944;2023-03-13T13:23:28;98745.53;;;-2.16;59.86
12676;BME280;63820;65.654;21.944;2023-03-13T13:32:13;98733.94;;;-2.31;61.76
12676;BME280;63820;65.654;21.944;2023-03-13T13:44:19;98703.53;;;-2.39;67.09
12676;BME280;63820;65.654;21.944;2023-03-13T13:47:04;98694.94;;;-2.33;69.49
12676;BME280;63820;65.654;21.944;2023-03-13T13:50:17;98680.31;;;-2.23;72.58
12676;BME280;63820;65.654;21.944;2023-03-13T13:53:30;98675.88;;;-2.14;73.58
12676;BME280;63820;65.654;21.944;2023-03-13T14:04:55;98681.78;;;-2.12;94.32
12676;BME280;63820;65.654;21.944;2023-03-13T14:07:50;98669.16;;;-2.18;99.98
12676;BME280;63820;65.654;21.944;2023-03-13T14:10:39;98655.56;;;-2.17;100.00
12676;BME280;63820;65.654;21.944;2023-03-13T14:13:23;98663.13;;;-2.14;100.00
12676;BME280;63820;65.654;21.944;2023-03-13T14:16:26;98643.41;;;-2.06;100.00
12676;BME280;63820;65.654;21.944;2023-03-13T14:19:28;98637.75;;;-2.17;100.00
12676;BME280;63820;65.654;21.944;2023-03-13T14:22:15;98625.69;;;-2.09;100.00
12676;BME280;63820;65.654;21.944;2023-03-13T14:24:59;98624.66;;;-2.03;100.00
12676;BME280;63820;65.654;21.944;2023-03-13T14:27:44;98620.19;;;-1.93;100.00
12676;BME280;63820;65.654;21.944;2023-03-13T14:30:29;98605.97;;;-2.02;100.00
12676;BME280;63820;65.654;21.944;2023-03-13T14:33:13;98593.84;;;-1.92;100.00
12676;BME280;63820;65.654;21.944;2023-03-13T14:35:57;98597.94;;;-1.85;100.00
12676;BME280;63820;65.654;21.944;2023-03-13T14:38:56;98590.34;;;-1.88;100.00
12676;BME280;63820;65.654;21.944;2023-03-13T14:41:46;98582.75;;;-1.90;100.00
12676;BME280;63820;65.654;21.944;2023-03-13T14:44:32;98575.72;;;-1.80;100.00
12676;BME280;63820;65.654;21.944;2023-03-13T14:47:28;98570.00;;;-1.90;100.00
12676;BME280;63820;65.654;21.944;2023-03-13T14:50:13;98556.50;;;-1.93;100.00
12676;BME280;63820;65.654;21.944;2023-03-13T14:53:02;98552.22;;;-1.91;100.00
12676;BME280;63820;65.654;21.944;2023-03-13T14:56:12;98547.69;;;-1.80;100.00
12676;BME280;63820;65.654;21.944;2023-03-13T14:59:07;98538.47;;;-1.84;100.00
12676;BME280;63820;65.654;21.944;2023-03-13T15:02:26;98543.59;;;-1.86;100.00
12676;BME280;63820;65.654;21.944;2023-03-13T15:05:31;98533.38;;;-1.84;100.00
12676;BME280;63820;65.654;21.944;2023-03-13T15:08:18;98508.59;;;-1.79;100.00
12676;BME280;63820;65.654;21.944;2023-03-13T15:11:56;98515.25;;;-1.74;100.00
12676;BME280;63820;65.654;21.944;2023-03-13T15:14:43;98507.03;;;-1.85;100.00
12676;BME280;63820;65.654;21.944;2023-03-13T15:17:28;98511.19;;;-1.81;100.00
12676;BME280;63820;65.654;21.944;2023-03-13T15:20:13;98477.56;;;-1.95;100.00
12676;BME280;63820;65.654;21.944;2023-03-13T15:22:58;98465.91;;;-2.04;100.00
12676;BME280;63820;65.654;21.944;2023-03-13T15:25:42;98440.63;;;-2.10;100.00